createdAt,value
2024-02-18T00:01:41.769Z,64.17
2024-02-18T00:04:08.706Z,63.95
2024-02-18T00:06:35.497Z,62.74
2024-02-18T00:09:02.315Z,62.44
2024-02-18T00:11:28.806Z,64.42
2024-02-18T00:13:55.493Z,62.86
2024-02-18T00:16:23.149Z,64.37
2024-02-18T00:18:49.843Z,64.57
2024-02-18T00:21:18.727Z,64.98
2024-02-18T00:23:48.357Z,63.13
2024-02-18T00:26:15.643Z,63.05
2024-02-18T00:28:42.148Z,62.21
2024-02-18T00:31:08.703Z,62.39
2024-02-18T00:33:35.321Z,63.66
2024-02-18T00:36:02.137Z,63.80
2024-02-18T00:38:28.967Z,63.68
2024-02-18T00:40:56.245Z,62.67
2024-02-18T00:43:22.726Z,62.78
2024-02-18T00:45:49.350Z,63.91
2024-02-18T00:48:16.050Z,62.82
2024-02-18T00:50:42.702Z,63.31
2024-02-18T00:53:09.396Z,64.07
2024-02-18T00:55:35.856Z,63.78
2024-02-18T00:58:02.487Z,63.56
2024-02-18T01:00:29.119Z,63.98
2024-02-18T01:02:55.665Z,64.86
2024-02-18T01:05:22.153Z,63.38
2024-02-18T01:07:48.692Z,64.59
2024-02-18T01:10:15.322Z,64.72
2024-02-18T01:12:41.814Z,65.06
2024-02-18T01:15:08.700Z,63.66
2024-02-18T01:17:35.181Z,65.22
2024-02-18T01:20:01.810Z,64.23
2024-02-18T01:22:28.342Z,64.07
2024-02-18T01:24:54.814Z,64.67
2024-02-18T01:27:21.413Z,65.82
2024-02-18T01:29:48.086Z,64.90
2024-02-18T01:32:14.546Z,65.73
2024-02-18T01:34:40.949Z,65.33
2024-02-18T01:37:07.400Z,64.04
2024-02-18T01:39:34.146Z,64.47
2024-02-18T01:42:00.585Z,64.00
2024-02-18T01:44:27.190Z,64.88
2024-02-18T01:46:53.795Z,65.70
2024-02-18T01:49:21.213Z,66.58
2024-02-18T01:51:48.531Z,65.82
2024-02-18T01:54:16.313Z,65.43
2024-02-18T01:56:43.340Z,65.69
2024-02-18T01:59:10.486Z,65.77
2024-02-18T02:01:38.469Z,66.56
2024-02-18T02:04:05.660Z,64.68
2024-02-18T02:06:32.287Z,65.88
2024-02-18T02:08:58.759Z,65.29
2024-02-18T02:11:25.394Z,65.39
2024-02-18T02:13:52.073Z,64.67
2024-02-18T02:16:19.760Z,65.11
2024-02-18T02:18:46.394Z,65.93
2024-02-18T02:21:12.951Z,65.40
2024-02-18T02:23:39.533Z,66.33
2024-02-18T02:26:06.912Z,65.62
2024-02-18T02:28:37.616Z,65.98
2024-02-18T02:31:05.151Z,64.77
2024-02-18T02:33:31.742Z,66.04
2024-02-18T02:35:58.227Z,65.06
2024-02-18T02:38:24.624Z,65.04
2024-02-18T02:40:51.061Z,65.62
2024-02-18T02:43:17.896Z,65.12
2024-02-18T02:45:44.622Z,65.34
2024-02-18T02:48:11.276Z,65.16
2024-02-18T02:50:39.247Z,65.55
2024-02-18T02:53:06.680Z,65.56
2024-02-18T02:55:33.173Z,65.62
2024-02-18T02:58:00.418Z,65.57
2024-02-18T03:00:27.055Z,66.12
2024-02-18T03:02:53.545Z,65.47
2024-02-18T03:05:20.042Z,65.15
2024-02-18T03:07:46.632Z,65.32
2024-02-18T03:10:13.217Z,65.84
2024-02-18T03:12:40.231Z,65.64
2024-02-18T03:15:07.087Z,65.56
2024-02-18T03:17:36.700Z,65.63
2024-02-18T03:20:05.193Z,65.13
2024-02-18T03:22:31.700Z,65.64
2024-02-18T03:24:58.168Z,65.45
2024-02-18T03:27:24.638Z,65.21
2024-02-18T03:29:51.154Z,65.29
2024-02-18T03:32:17.593Z,65.91
2024-02-18T03:34:44.713Z,66.25
2024-02-18T03:37:11.859Z,65.67
2024-02-18T03:39:39.105Z,66.15
2024-02-18T03:42:06.123Z,66.15
2024-02-18T03:44:32.594Z,66.15
2024-02-18T03:46:59.052Z,66.21
2024-02-18T03:49:25.660Z,66.30
2024-02-18T03:51:52.335Z,65.54
2024-02-18T03:54:20.135Z,66.30
2024-02-18T03:56:46.757Z,65.24
2024-02-18T03:59:16.500Z,65.72
2024-02-18T04:01:43.063Z,66.22
2024-02-18T04:04:09.997Z,66.85
2024-02-18T04:06:36.570Z,66.44
2024-02-18T04:09:03.054Z,65.85
2024-02-18T04:11:29.875Z,66.31
2024-02-18T04:13:56.542Z,66.19
2024-02-18T04:16:22.985Z,65.95
2024-02-18T04:18:49.761Z,66.67
2024-02-18T04:21:16.331Z,66.64
2024-02-18T04:23:42.971Z,67.34
2024-02-18T04:26:09.411Z,67.15
2024-02-18T04:28:36.439Z,66.33
2024-02-18T04:31:03.586Z,66.65
2024-02-18T04:33:30.218Z,66.72
2024-02-18T04:35:56.726Z,68.00
2024-02-18T04:38:23.194Z,67.20
2024-02-18T04:40:49.671Z,66.52
2024-02-18T04:43:17.191Z,66.62
2024-02-18T04:45:44.894Z,67.89
2024-02-18T04:48:11.463Z,67.07
2024-02-18T04:50:38.562Z,66.48
2024-02-18T04:53:05.606Z,67.24
2024-02-18T04:55:32.241Z,67.85
2024-02-18T04:57:59.921Z,68.15
2024-02-18T05:00:26.561Z,67.52
2024-02-18T05:02:53.122Z,67.02
2024-02-18T05:05:19.724Z,67.10
2024-02-18T05:07:46.260Z,66.80
2024-02-18T05:10:12.771Z,67.24
2024-02-18T05:12:39.669Z,68.07
2024-02-18T05:15:06.551Z,67.22
2024-02-18T05:17:33.016Z,68.34
2024-02-18T05:19:59.840Z,68.37
2024-02-18T05:22:26.468Z,68.23
2024-02-18T05:24:52.937Z,67.90
2024-02-18T05:27:19.601Z,69.20
2024-02-18T05:29:46.096Z,67.96
2024-02-18T05:32:12.515Z,68.94
2024-02-18T05:34:39.111Z,68.65
2024-02-18T05:37:05.700Z,68.28
2024-02-18T05:39:32.232Z,68.92
2024-02-18T05:41:58.731Z,68.23
2024-02-18T05:44:25.108Z,68.63
2024-02-18T05:46:51.542Z,68.72
2024-02-18T05:49:18.040Z,68.34
2024-02-18T05:51:44.522Z,69.49
2024-02-18T05:54:10.930Z,68.56
2024-02-18T05:56:37.381Z,68.86
2024-02-18T05:59:05.030Z,69.86
2024-02-18T06:01:31.615Z,69.16
2024-02-18T06:03:58.158Z,69.29
2024-02-18T06:06:24.747Z,69.00
2024-02-18T06:08:51.377Z,69.33
2024-02-18T06:11:20.669Z,69.86
2024-02-18T06:13:47.828Z,69.51
2024-02-18T06:16:15.489Z,70.45
2024-02-18T06:18:42.497Z,69.85
2024-02-18T06:21:09.032Z,70.13
2024-02-18T06:23:35.397Z,71.35
2024-02-18T06:26:03.988Z,70.45
2024-02-18T06:28:33.898Z,70.87
2024-02-18T06:31:04.186Z,70.25
2024-02-18T06:33:31.147Z,69.79
2024-02-18T06:35:58.226Z,69.80
2024-02-18T06:38:24.755Z,69.65
2024-02-18T06:40:51.454Z,69.69
2024-02-18T06:43:17.975Z,70.51
2024-02-18T06:45:44.503Z,69.95
2024-02-18T06:48:11.053Z,69.90
2024-02-18T06:50:37.581Z,69.79
2024-02-18T06:53:04.236Z,70.15
2024-02-18T06:55:30.660Z,70.71
2024-02-18T06:57:57.078Z,70.10
2024-02-18T07:00:24.087Z,70.34
2024-02-18T07:02:50.563Z,70.76
2024-02-18T07:05:17.127Z,71.24
2024-02-18T07:07:43.649Z,71.21
2024-02-18T07:10:10.199Z,71.21
2024-02-18T07:12:36.702Z,70.54
2024-02-18T07:15:03.759Z,70.90
2024-02-18T07:17:30.342Z,70.77
2024-02-18T07:19:56.982Z,71.01
2024-02-18T07:22:25.057Z,70.74
2024-02-18T07:24:51.512Z,70.63
2024-02-18T07:27:17.944Z,70.79
2024-02-18T07:29:44.406Z,70.86
2024-02-18T07:32:10.890Z,71.09
2024-02-18T07:34:37.494Z,70.80
2024-02-18T07:37:05.103Z,70.40
2024-02-18T07:39:31.717Z,70.87
2024-02-18T07:41:58.265Z,70.42
2024-02-18T07:44:24.752Z,70.52
2024-02-18T07:46:51.272Z,70.82
2024-02-18T07:49:19.564Z,70.74
2024-02-18T07:51:46.247Z,70.54
2024-02-18T07:54:12.722Z,70.41
2024-02-18T07:56:44.413Z,70.63
2024-02-18T07:59:11.494Z,69.92
2024-02-18T08:01:38.114Z,69.37
2024-02-18T08:04:04.762Z,69.19
2024-02-18T08:06:33.212Z,70.08
2024-02-18T08:09:00.578Z,69.84
2024-02-18T08:11:27.172Z,69.51
2024-02-18T08:13:53.842Z,69.69
2024-02-18T08:16:20.788Z,69.94
2024-02-18T08:18:47.813Z,69.87
2024-02-18T08:21:14.307Z,69.23
2024-02-18T08:23:40.813Z,69.05
2024-02-18T08:26:08.869Z,69.83
2024-02-18T08:28:35.370Z,70.04
2024-02-18T08:31:01.825Z,69.30
2024-02-18T08:33:28.408Z,68.94
2024-02-18T08:35:55.999Z,69.60
2024-02-18T08:38:22.601Z,69.99
2024-02-18T08:40:49.072Z,69.77
2024-02-18T08:43:15.624Z,68.74
2024-02-18T08:45:42.141Z,68.17
2024-02-18T08:48:09.359Z,68.69
2024-02-18T08:50:35.904Z,67.96
2024-02-18T08:53:03.407Z,67.67
2024-02-18T08:55:29.893Z,67.91
2024-02-18T08:57:56.478Z,69.35
2024-02-18T09:00:23.029Z,69.07
2024-02-18T09:02:49.546Z,68.98
2024-02-18T09:05:16.169Z,68.75
2024-02-18T09:07:43.469Z,67.71
2024-02-18T09:10:10.665Z,68.18
2024-02-18T09:12:37.404Z,69.23
2024-02-18T09:15:04.251Z,68.56
2024-02-18T09:17:30.703Z,68.41
2024-02-18T09:19:57.516Z,69.44
2024-02-18T09:22:24.066Z,69.71
2024-02-18T09:24:50.674Z,68.06
2024-02-18T09:27:17.774Z,69.51
2024-02-18T09:29:44.288Z,68.62
2024-02-18T09:32:10.960Z,69.08
2024-02-18T09:34:38.789Z,68.65
2024-02-18T09:37:05.641Z,67.51
2024-02-18T09:39:32.316Z,68.43
2024-02-18T09:41:59.477Z,68.63
2024-02-18T09:44:28.839Z,68.59
2024-02-18T09:46:59.403Z,68.06
2024-02-18T09:49:29.528Z,68.65
2024-02-18T09:51:56.511Z,68.74
2024-02-18T09:54:23.811Z,69.67
2024-02-18T09:56:50.353Z,68.68
2024-02-18T09:59:18.055Z,69.18
2024-02-18T10:01:48.814Z,68.75
2024-02-18T10:04:15.577Z,68.32
2024-02-18T10:06:44.902Z,69.49
2024-02-18T10:09:11.380Z,69.00
2024-02-18T10:11:37.891Z,68.57
2024-02-18T10:14:07.111Z,67.21
2024-02-18T10:16:37.069Z,66.93
2024-02-18T10:19:03.813Z,67.58
2024-02-18T10:21:30.371Z,68.01
2024-02-18T10:23:56.897Z,67.77
2024-02-18T10:26:24.653Z,66.76
2024-02-18T10:28:51.225Z,68.39
2024-02-18T10:31:17.822Z,67.69
2024-02-18T10:33:44.420Z,67.63
2024-02-18T10:36:13.094Z,68.08
2024-02-18T10:38:47.277Z,68.75
2024-02-18T10:41:17.729Z,67.49
2024-02-18T10:43:51.302Z,67.07
2024-02-18T10:46:23.207Z,66.84
2024-02-18T10:48:56.488Z,67.99
2024-02-18T10:51:27.474Z,68.27
2024-02-18T10:54:04.488Z,67.49
2024-02-18T10:56:31.696Z,65.71
2024-02-18T10:59:00.934Z,65.81
2024-02-18T11:01:29.945Z,67.88
2024-02-18T11:04:00.313Z,67.21
2024-02-18T11:06:27.478Z,66.32
2024-02-18T11:08:55.624Z,67.11
2024-02-18T11:11:23.501Z,67.33
2024-02-18T11:13:51.572Z,67.53
2024-02-18T11:16:18.355Z,66.79
2024-02-18T11:18:45.454Z,66.72
2024-02-18T11:21:14.580Z,67.06
2024-02-18T11:23:52.502Z,66.69
2024-02-18T11:26:18.991Z,67.35
2024-02-18T11:28:48.646Z,68.25
2024-02-18T11:31:29.417Z,68.82
2024-02-18T11:33:57.808Z,68.63
2024-02-18T11:36:25.676Z,67.20
2024-02-18T11:38:54.629Z,68.69
2024-02-18T11:41:27.981Z,67.32
2024-02-18T11:43:55.711Z,66.63
2024-02-18T11:46:29.383Z,68.37
2024-02-18T11:48:57.069Z,67.95
2024-02-18T11:51:25.480Z,67.28
2024-02-18T11:53:52.142Z,67.00
2024-02-18T11:56:19.397Z,66.88
2024-02-18T11:58:49.264Z,67.08
2024-02-18T12:01:16.768Z,67.20
2024-02-18T12:03:49.575Z,68.67
2024-02-18T12:06:16.307Z,67.27
2024-02-18T12:08:42.986Z,68.40
2024-02-18T12:11:09.469Z,67.32
2024-02-18T12:13:35.948Z,66.67
2024-02-18T12:16:05.089Z,67.01
2024-02-18T12:18:32.078Z,67.63
2024-02-18T12:20:59.116Z,67.69
2024-02-18T12:23:26.289Z,67.64
2024-02-18T12:25:54.178Z,67.33
2024-02-18T12:28:20.966Z,67.07
2024-02-18T12:30:48.299Z,67.59
2024-02-18T12:33:16.146Z,66.68
2024-02-18T12:35:42.896Z,67.87
2024-02-18T12:38:10.599Z,67.12
2024-02-18T12:40:40.723Z,66.51
2024-02-18T12:45:43.412Z,66.64
2024-02-18T12:48:14.316Z,67.86
2024-02-18T12:50:41.265Z,67.74
2024-02-18T12:53:09.032Z,66.58
2024-02-18T12:55:36.961Z,66.72
2024-02-18T12:58:03.727Z,67.63
2024-02-18T13:00:31.125Z,67.17
2024-02-18T13:02:57.670Z,67.59
2024-02-18T13:05:25.703Z,67.05
2024-02-18T13:07:57.548Z,66.87
2024-02-18T13:10:24.229Z,66.77
2024-02-18T13:12:51.357Z,66.99
2024-02-18T13:15:18.613Z,68.36
2024-02-18T13:17:49.702Z,67.44
2024-02-18T13:20:16.299Z,68.22
2024-02-18T13:22:43.874Z,67.97
2024-02-18T13:25:10.499Z,68.58
2024-02-18T13:27:37.220Z,67.63
2024-02-18T13:30:04.407Z,68.16
2024-02-18T13:32:30.896Z,67.47
2024-02-18T13:34:57.675Z,67.93
2024-02-18T13:37:24.407Z,68.23
2024-02-18T13:39:51.242Z,67.84
2024-02-18T13:42:20.795Z,67.35
2024-02-18T13:44:48.326Z,66.81
2024-02-18T13:47:15.411Z,68.18
2024-02-18T13:49:42.078Z,68.43
2024-02-18T13:52:08.999Z,68.78
2024-02-18T13:54:35.482Z,67.96
2024-02-18T13:57:01.994Z,69.61
2024-02-18T13:59:30.218Z,68.74
2024-02-18T14:01:58.973Z,69.17
2024-02-18T14:04:25.498Z,69.11
2024-02-18T14:06:52.147Z,70.23
2024-02-18T14:09:18.690Z,69.44
2024-02-18T14:11:45.177Z,69.47
2024-02-18T14:14:11.815Z,69.67
2024-02-18T14:16:40.351Z,69.76
2024-02-18T14:19:07.051Z,69.68
2024-02-18T14:21:34.345Z,69.21
2024-02-18T14:24:00.974Z,68.90
2024-02-18T14:26:27.719Z,68.31
2024-02-18T14:28:55.406Z,68.83
2024-02-18T14:31:21.935Z,68.55
2024-02-18T14:33:48.665Z,68.74
2024-02-18T14:36:16.328Z,68.57
2024-02-18T14:38:42.746Z,69.33
2024-02-18T14:41:10.475Z,68.58
2024-02-18T14:43:36.969Z,69.12
2024-02-18T14:46:03.519Z,68.54
2024-02-18T14:48:30.056Z,69.15
2024-02-18T14:50:56.676Z,69.22
2024-02-18T14:53:23.133Z,68.92
2024-02-18T14:55:49.688Z,68.47
2024-02-18T14:58:17.566Z,68.87
2024-02-18T15:00:44.336Z,69.02
2024-02-18T15:03:10.889Z,69.02
2024-02-18T15:05:37.564Z,68.30
2024-02-18T15:08:04.691Z,68.92
2024-02-18T15:10:31.334Z,68.77
2024-02-18T15:12:57.855Z,68.96
2024-02-18T15:15:24.381Z,68.91
2024-02-18T15:17:50.914Z,68.95
2024-02-18T15:20:17.519Z,68.74
2024-02-18T15:22:44.232Z,69.03
2024-02-18T15:25:12.150Z,68.51
2024-02-18T15:27:39.077Z,68.41
2024-02-18T15:30:06.593Z,68.53
2024-02-18T15:32:33.136Z,68.48
2024-02-18T15:34:59.612Z,68.68
2024-02-18T15:37:26.310Z,68.59
2024-02-18T15:39:52.870Z,68.45
2024-02-18T15:42:19.335Z,68.16
2024-02-18T15:44:45.831Z,68.27
2024-02-18T15:47:12.388Z,67.71
2024-02-18T15:49:39.132Z,67.60
2024-02-18T15:52:06.388Z,68.19
2024-02-18T15:54:32.933Z,67.74
2024-02-18T15:56:59.502Z,68.08
2024-02-18T15:59:26.101Z,67.64
2024-02-18T16:01:53.970Z,67.84
2024-02-18T16:04:20.984Z,67.67
2024-02-18T16:06:47.746Z,68.52
2024-02-18T16:09:14.807Z,68.52
2024-02-18T16:11:41.378Z,67.84
2024-02-18T16:14:07.889Z,68.58
2024-02-18T16:16:34.306Z,67.82
2024-02-18T16:19:01.001Z,67.92
2024-02-18T16:21:29.000Z,68.57
2024-02-18T16:24:00.393Z,68.57
2024-02-18T16:26:27.962Z,68.83
2024-02-18T16:28:54.446Z,68.33
2024-02-18T16:31:21.043Z,68.91
2024-02-18T16:33:47.708Z,68.79
2024-02-18T16:36:14.165Z,69.45
2024-02-18T16:38:42.431Z,68.78
2024-02-18T16:41:08.901Z,69.61
2024-02-18T16:43:36.357Z,69.40
2024-02-18T16:46:04.133Z,69.23
2024-02-18T16:48:33.518Z,69.90
2024-02-18T16:51:00.213Z,69.96
2024-02-18T16:53:27.339Z,70.51
2024-02-18T16:55:53.841Z,70.71
2024-02-18T16:58:20.633Z,70.24
2024-02-18T17:00:47.539Z,69.05
2024-02-18T17:03:14.102Z,70.45
2024-02-18T17:05:40.890Z,70.46
2024-02-18T17:08:11.711Z,70.45
2024-02-18T17:10:40.503Z,70.59
2024-02-18T17:13:09.330Z,69.63
2024-02-18T17:15:37.007Z,70.18
2024-02-18T17:18:04.253Z,70.05
2024-02-18T17:20:31.568Z,70.10
2024-02-18T17:23:01.297Z,69.43
2024-02-18T17:25:30.389Z,69.19
2024-02-18T17:27:56.836Z,68.93
2024-02-18T17:30:23.376Z,69.46
2024-02-18T17:32:50.477Z,69.66
2024-02-18T17:35:17.160Z,70.19
2024-02-18T17:37:44.966Z,70.04
2024-02-18T17:40:11.711Z,69.33
2024-02-18T17:42:38.323Z,69.85
2024-02-18T17:45:06.182Z,70.18
2024-02-18T17:47:33.267Z,69.55
2024-02-18T17:50:00.373Z,70.07
2024-02-18T17:52:27.044Z,70.24
2024-02-18T17:54:53.483Z,70.43
2024-02-18T17:57:20.255Z,70.50
2024-02-18T17:59:53.028Z,70.63
2024-02-18T18:02:19.530Z,70.04
2024-02-18T18:04:46.732Z,69.51
2024-02-18T18:07:13.513Z,69.79
2024-02-18T18:09:40.303Z,69.76
2024-02-18T18:12:07.011Z,69.96
2024-02-18T18:14:33.439Z,69.57
2024-02-18T18:16:59.868Z,68.86
2024-02-18T18:19:26.405Z,69.37
2024-02-18T18:21:52.848Z,69.14
2024-02-18T18:24:19.408Z,68.87
2024-02-18T18:26:45.856Z,68.93
2024-02-18T18:29:12.415Z,68.97
2024-02-18T18:31:39.955Z,69.43
2024-02-18T18:34:06.444Z,68.75
2024-02-18T18:36:33.117Z,69.20
2024-02-18T18:38:59.629Z,69.05
2024-02-18T18:41:26.156Z,68.88
2024-02-18T18:43:52.547Z,69.02
2024-02-18T18:46:19.071Z,69.52
2024-02-18T18:48:45.680Z,69.23
2024-02-18T18:51:12.332Z,69.63
2024-02-18T18:53:39.319Z,69.49
2024-02-18T18:56:06.332Z,69.78
2024-02-18T18:58:34.376Z,70.06
2024-02-18T19:01:00.884Z,69.76
2024-02-18T19:03:27.447Z,70.32
2024-02-18T19:05:53.969Z,70.50
2024-02-18T19:08:20.471Z,69.68
2024-02-18T19:10:47.060Z,69.79
2024-02-18T19:13:24.428Z,70.26
2024-02-18T19:16:00.368Z,69.52
2024-02-18T19:18:26.889Z,70.39
2024-02-18T19:20:54.048Z,70.82
2024-02-18T19:23:22.003Z,70.33
2024-02-18T19:25:48.497Z,70.82
2024-02-18T19:28:15.776Z,70.27
2024-02-18T19:30:42.298Z,71.46
2024-02-18T19:33:08.809Z,70.93
2024-02-18T19:35:37.399Z,70.28
2024-02-18T19:38:04.010Z,70.44
2024-02-18T19:40:33.561Z,70.40
2024-02-18T19:43:00.112Z,71.10
2024-02-18T19:45:27.106Z,70.78
2024-02-18T19:47:57.831Z,71.23
2024-02-18T19:50:25.672Z,71.32
2024-02-18T19:52:52.138Z,72.08
2024-02-18T19:55:18.686Z,72.13
2024-02-18T19:57:46.378Z,72.02
2024-02-18T20:00:13.359Z,72.03
2024-02-18T20:02:40.661Z,71.43
2024-02-18T20:05:08.579Z,71.85
2024-02-18T20:07:36.957Z,72.54
2024-02-18T20:10:04.180Z,72.88
2024-02-18T20:12:30.936Z,72.73
2024-02-18T20:14:58.052Z,72.76
2024-02-18T20:17:24.787Z,72.68
2024-02-18T20:19:51.456Z,72.20
2024-02-18T20:22:18.515Z,72.35
2024-02-18T20:24:47.441Z,72.34
2024-02-18T20:27:15.511Z,72.82
2024-02-18T20:29:42.157Z,73.11
2024-02-18T20:32:08.836Z,73.77
2024-02-18T20:34:37.768Z,72.67
2024-02-18T20:37:07.782Z,73.14
2024-02-18T20:39:38.260Z,73.82
2024-02-18T20:42:04.885Z,73.51
2024-02-18T20:44:31.307Z,72.76
2024-02-18T20:46:57.928Z,73.54
2024-02-18T20:49:25.189Z,74.30
2024-02-18T20:51:52.629Z,74.22
2024-02-18T20:54:21.056Z,73.52
2024-02-18T20:56:48.527Z,73.33
2024-02-18T20:59:15.945Z,73.73
2024-02-18T21:01:43.662Z,73.58
2024-02-18T21:04:10.245Z,73.07
2024-02-18T21:06:36.882Z,74.02
2024-02-18T21:09:04.902Z,73.53
2024-02-18T21:11:31.301Z,73.28
2024-02-18T21:13:58.427Z,73.89
2024-02-18T21:16:25.093Z,73.32
2024-02-18T21:18:51.651Z,73.53
2024-02-18T21:21:18.865Z,74.41
2024-02-18T21:23:45.273Z,74.66
2024-02-18T21:26:18.611Z,74.32
2024-02-18T21:28:49.761Z,73.63
2024-02-18T21:31:16.954Z,73.90
2024-02-18T21:33:43.694Z,74.14
2024-02-18T21:36:15.368Z,74.61
2024-02-18T21:38:42.018Z,75.21
2024-02-18T21:41:11.077Z,74.85
2024-02-18T21:43:37.581Z,74.68
2024-02-18T21:46:04.146Z,74.71
2024-02-18T21:48:31.454Z,75.01
2024-02-18T21:50:57.953Z,74.74
2024-02-18T21:53:24.374Z,74.85
2024-02-18T21:55:50.962Z,74.62
2024-02-18T21:58:17.549Z,74.66
2024-02-18T22:00:44.102Z,74.90
2024-02-18T22:03:10.620Z,74.44
2024-02-18T22:05:37.781Z,74.64
2024-02-18T22:08:05.361Z,75.53
2024-02-18T22:10:32.299Z,74.54
2024-02-18T22:12:58.993Z,75.25
2024-02-18T22:15:25.567Z,76.32
2024-02-18T22:17:52.645Z,75.86
2024-02-18T22:20:21.064Z,76.46
2024-02-18T22:22:47.534Z,76.12
2024-02-18T22:25:14.306Z,76.25
2024-02-18T22:27:40.898Z,76.05
2024-02-18T22:30:14.941Z,75.87
2024-02-18T22:32:41.712Z,76.18
2024-02-18T22:35:08.500Z,77.15
2024-02-18T22:37:35.100Z,76.50
2024-02-18T22:40:01.643Z,77.40
2024-02-18T22:42:28.167Z,77.52
2024-02-18T22:44:54.589Z,76.54
2024-02-18T22:47:20.960Z,77.44
2024-02-18T22:49:47.432Z,77.40
2024-02-18T22:52:14.004Z,77.25
2024-02-18T22:54:42.763Z,77.40
2024-02-18T22:57:09.308Z,76.15
2024-02-18T22:59:35.699Z,77.03
2024-02-18T23:02:02.186Z,76.97
2024-02-18T23:04:28.606Z,76.29
2024-02-18T23:06:55.066Z,77.11
2024-02-18T23:09:21.500Z,76.33
2024-02-18T23:11:47.973Z,76.28
2024-02-18T23:14:14.418Z,76.22
2024-02-18T23:16:40.881Z,75.86
2024-02-18T23:19:07.379Z,76.50
2024-02-18T23:21:35.411Z,77.54
2024-02-18T23:24:01.837Z,77.21
2024-02-18T23:26:28.241Z,76.42
2024-02-18T23:28:54.651Z,77.34
2024-02-18T23:31:21.044Z,77.50
2024-02-18T23:33:47.610Z,77.35
2024-02-18T23:36:14.147Z,76.51
2024-02-18T23:38:40.553Z,76.41
2024-02-18T23:41:07.478Z,76.69
2024-02-18T23:43:41.535Z,76.98
2024-02-18T23:46:09.524Z,76.94
2024-02-18T23:48:36.793Z,77.62
2024-02-18T23:51:04.414Z,77.35
2024-02-18T23:53:31.258Z,76.91
2024-02-18T23:55:57.690Z,76.45
2024-02-18T23:58:24.107Z,77.42
